Time;durP1;ratioP1;P1;durP2;ratioP2;P2;SDS_P1;SDS_P2;PMS_P1;PMS_P2;Temp;Humidity;BMP_temperature;BMP_pressure;BME280_temperature;BME280_humidity;BME280_pressure;Samples;Min_cycle;Max_cycle;Signal;HPM_P1;HPM_P2
2022/12/22 03:25:52;;;;;;;;;4.00;0.67;;;;;14.12;100.00;100316.16;5079140;28;45402;-73
2022/12/22 03:28:17;;;;;;;;;2.00;0.00;;;;;14.02;100.00;100310.97;5078556;27;45568;-72
2022/12/22 03:30:43;;;;;;;;;3.00;0.00;;;;;14.01;100.00;100290.59;5078678;27;45355;-75
2022/12/22 03:33:08;;;;;;;;;3.00;1.00;;;;;13.97;100.00;100310.13;5077642;27;60568;-73
2022/12/22 03:35:33;;;;;;;;;3.00;1.33;;;;;13.91;100.00;100303.13;5078167;28;53260;-73
2022/12/22 03:38:02;;;;;;;;;1.00;0.00;;;;;13.91;100.00;100315.50;5078454;28;45337;-71
2022/12/22 03:40:31;;;;;;;;;1.33;1.33;;;;;13.89;100.00;100286.31;5077827;27;46420;-73
2022/12/22 03:48:24;;;;;;;;;4.00;1.00;;;;;13.83;100.00;100286.38;5073543;28;45391;-72
2022/12/22 03:50:49;;;;;;;;;3.00;0.00;;;;;13.83;100.00;100283.72;5077296;28;61753;-72
2022/12/22 03:53:15;;;;;;;;;2.00;0.00;;;;;13.82;100.00;100298.78;5077640;27;61404;-72
2022/12/22 03:55:40;;;;;;;;;0.33;0.00;;;;;13.79;100.00;100296.16;5077648;27;54756;-72
2022/12/22 03:58:05;;;;;;;;;0.67;0.67;;;;;13.82;100.00;100293.47;5078795;27;45446;-72
2022/12/22 04:00:31;;;;;;;;;2.00;0.00;;;;;13.75;100.00;100302.41;5076516;28;66484;-73
2022/12/22 04:02:57;;;;;;;;;0.67;0.67;;;;;13.76;100.00;100301.50;5077826;28;49305;-72
2022/12/22 04:05:23;;;;;;;;;2.00;0.00;;;;;13.72;100.00;100293.59;5077539;27;45203;-72
2022/12/22 04:07:48;;;;;;;;;0.00;0.00;;;;;13.74;100.00;100313.94;5078271;28;45591;-73
2022/12/22 04:12:57;;;;;;;;;3.00;0.00;;;;;13.66;100.00;100331.69;5071077;28;45712;-74
2022/12/22 04:15:28;;;;;;;;;2.33;0.00;;;;;13.70;100.00;100359.06;5078042;28;45437;-72
2022/12/22 04:17:53;;;;;;;;;3.00;0.00;;;;;13.71;100.00;100342.25;5078041;27;45472;-72
2022/12/22 04:20:20;;;;;;;;;0.67;0.00;;;;;13.70;100.00;100367.03;5076292;28;45466;-72
2022/12/22 04:22:45;;;;;;;;;3.00;0.00;;;;;13.74;100.00;100366.09;5077359;27;45430;-73
2022/12/22 04:25:11;;;;;;;;;2.00;0.00;;;;;13.74;100.00;100392.63;5077897;27;45282;-72
2022/12/22 04:27:37;;;;;;;;;0.00;0.00;;;;;13.72;100.00;100395.28;5077999;27;45377;-72
2022/12/22 04:30:05;;;;;;;;;0.00;0.00;;;;;13.76;100.00;100390.84;5077173;28;45807;-72
2022/12/22 04:32:30;;;;;;;;;5.00;0.00;;;;;13.76;100.00;100390.84;5077456;27;45385;-72
2022/12/22 04:34:55;;;;;;;;;0.33;0.00;;;;;13.78;100.00;100397.00;5077392;27;52106;-74
2022/12/22 04:37:20;;;;;;;;;1.00;0.00;;;;;13.78;100.00;100411.16;5077540;28;45457;-73
2022/12/22 04:39:46;;;;;;;;;0.00;0.00;;;;;13.78;100.00;100410.28;5076737;27;64456;-73
2022/12/22 04:42:11;;;;;;;;;4.00;0.00;;;;;13.76;100.00;100412.06;5076495;28;59759;-74
2022/12/22 04:44:36;;;;;;;;;2.33;0.00;;;;;13.79;100.00;100455.38;5077567;27;45513;-72
2022/12/22 04:47:02;;;;;;;;;1.00;0.00;;;;;13.76;100.00;100451.88;5077108;28;54186;-73
2022/12/22 04:49:27;;;;;;;;;1.67;0.00;;;;;13.75;100.00;100447.47;5076743;28;61898;-72
2022/12/22 04:51:52;;;;;;;;;1.00;0.00;;;;;13.77;100.00;100467.78;5076696;27;50296;-72
2022/12/22 04:54:18;;;;;;;;;1.67;0.00;;;;;13.79;100.00;100473.06;5076795;28;54749;-71
2022/12/22 04:56:43;;;;;;;;;0.00;0.00;;;;;13.79;100.00;100473.94;5077348;27;45367;-72
2022/12/22 04:59:08;;;;;;;;;2.00;0.00;;;;;13.80;100.00;100478.38;5077240;27;62232;-73
2022/12/22 05:01:34;;;;;;;;;0.00;0.00;;;;;13.78;100.00;100480.16;5076562;28;58546;-73
2022/12/22 05:03:59;;;;;;;;;1.00;0.00;;;;;13.77;100.00;100493.44;5075530;28;58668;-72
2022/12/22 05:06:24;;;;;;;;;1.00;0.00;;;;;13.75;100.00;100508.50;5077172;28;45453;-71
2022/12/22 05:08:50;;;;;;;;;0.67;0.00;;;;;13.70;100.00;100534.19;5076418;28;63979;-71
2022/12/22 05:11:15;;;;;;;;;1.67;0.00;;;;;13.72;100.00;100519.13;5075525;28;58564;-72
2022/12/22 05:13:41;;;;;;;;;1.00;0.00;;;;;13.70;100.00;100526.22;5075981;27;56316;-72
2022/12/22 05:16:12;;;;;;;;;0.00;0.00;;;;;13.68;100.00;100534.16;5077103;28;45647;-73
2022/12/22 05:18:38;;;;;;;;;1.00;0.00;;;;;13.71;100.00;100554.50;5076781;27;46437;-72
2022/12/22 05:21:10;;;;;;;;;1.00;0.00;;;;;13.69;100.00;100535.03;5069938;28;45450;-71
2022/12/22 05:23:35;;;;;;;;;0.00;0.00;;;;;13.70;100.00;100553.63;5077282;27;45483;-72
2022/12/22 05:26:01;;;;;;;;;1.00;0.00;;;;;13.70;100.00;100543.03;5076233;28;55334;-72
2022/12/22 05:28:26;;;;;;;;;2.00;0.00;;;;;13.75;100.00;100557.13;5075785;27;59766;-73
2022/12/22 05:30:52;;;;;;;;;0.00;0.00;;;;;13.77;100.00;100563.31;5076596;27;59506;-72
2022/12/22 05:33:18;;;;;;;;;0.00;0.00;;;;;13.79;100.00;100555.31;5076935;27;45405;-72
2022/12/22 05:35:43;;;;;;;;;0.00;0.00;;;;;13.80;100.00;100559.75;5199974;22;45871;-72
2022/12/22 05:38:08;;;;;;;;;0.00;0.00;;;;;13.82;100.00;100573.91;5095933;27;46581;-72
2022/12/22 05:40:34;;;;;;;;;1.00;0.00;;;;;13.78;100.00;100556.22;5092378;27;45470;-71
2022/12/22 05:42:59;;;;;;;;;0.00;0.00;;;;;13.78;100.00;100572.16;5096822;27;45483;-71
2022/12/22 05:45:24;;;;;;;;;0.00;0.00;;;;;13.78;100.00;100565.06;5095481;27;52846;-72
2022/12/22 05:47:51;;;;;;;;;0.00;0.00;;;;;13.83;100.00;100583.63;5096790;27;45606;-73
2022/12/22 05:50:19;;;;;;;;;0.00;0.00;;;;;13.82;100.00;100584.50;5094630;27;45280;-71
2022/12/22 05:52:45;;;;;;;;;0.00;0.00;;;;;13.82;100.00;100598.66;5095911;27;45375;-73
2022/12/22 05:55:12;;;;;;;;;0.33;0.00;;;;;13.78;100.00;100588.06;5097078;27;45361;-72
2022/12/22 05:57:37;;;;;;;;;0.00;0.00;;;;;13.79;100.00;100588.03;5093179;27;45666;-73
2022/12/22 06:00:05;;;;;;;;;0.67;0.00;;;;;13.80;100.00;100587.19;5096121;27;58012;-73
2022/12/22 06:02:30;;;;;;;;;0.00;0.00;;;;;13.84;100.00;100599.53;5096959;27;45329;-72
2022/12/22 06:04:56;;;;;;;;;0.00;0.00;;;;;13.84;100.00;100596.00;5096419;27;48003;-71
2022/12/22 06:07:21;;;;;;;;;1.00;0.00;;;;;13.81;100.00;100599.56;5096014;27;55868;-72
2022/12/22 06:09:46;;;;;;;;;0.00;0.00;;;;;13.86;100.00;100607.50;5096440;27;58782;-73
2022/12/22 06:12:13;;;;;;;;;0.00;0.00;;;;;13.88;100.00;100614.53;5096654;27;45162;-73
2022/12/22 06:14:38;;;;;;;;;0.67;0.00;;;;;13.85;100.00;100611.91;5096657;27;45689;-72
2022/12/22 06:17:03;;;;;;;;;0.00;0.00;;;;;13.91;100.00;100626.94;5096446;27;45723;-72
2022/12/22 06:19:29;;;;;;;;;0.67;0.00;;;;;13.86;100.00;100621.66;5096256;27;58025;-72
2022/12/22 06:21:54;;;;;;;;;0.00;0.00;;;;;13.87;100.00;100639.31;5096892;27;45873;-73
2022/12/22 06:24:19;;;;;;;;;0.00;0.00;;;;;13.81;100.00;100649.09;5096774;27;45374;-72
2022/12/22 06:26:45;;;;;;;;;1.00;0.00;;;;;13.79;100.00;100650.84;5095148;27;57963;-72
2022/12/22 06:29:10;;;;;;;;;0.00;0.00;;;;;13.75;100.00;100655.31;5093117;27;58109;-73
2022/12/22 06:31:35;;;;;;;;;0.00;0.00;;;;;13.70;100.00;100661.53;5096301;27;45985;-72
2022/12/22 06:34:01;;;;;;;;;0.00;0.00;;;;;13.62;100.00;100657.13;5098835;27;54206;-72
2022/12/22 06:36:26;;;;;;;;;0.00;0.00;;;;;13.58;100.00;100660.72;5100006;27;60817;-73
2022/12/22 06:38:51;;;;;;;;;1.00;0.00;;;;;13.55;100.00;100666.00;5099320;27;57942;-71
2022/12/22 06:43:07;;;;;;;;;1.00;0.00;;;;;13.52;100.00;100670.44;5098703;27;54084;-72
2022/12/22 06:44:02;;;;;;;;;0.00;0.00;;;;;13.49;100.00;100675.78;5096884;27;45444;-72
2022/12/22 06:46:28;;;;;;;;;1.00;0.00;;;;;13.44;100.00;100673.13;5095996;27;45896;-72
2022/12/22 06:48:53;;;;;;;;;0.00;0.00;;;;;13.46;100.00;100675.75;5100914;27;58464;-72
2022/12/22 06:51:18;;;;;;;;;0.00;0.00;;;;;13.45;100.00;100681.97;5097502;27;50725;-72
2022/12/22 06:53:44;;;;;;;;;0.00;0.00;;;;;13.45;100.00;100688.16;5099027;27;57405;-72
2022/12/22 06:56:09;;;;;;;;;0.00;0.00;;;;;13.46;100.00;100687.25;5091407;27;46404;-72
2022/12/22 06:58:34;;;;;;;;;1.00;0.00;;;;;13.43;100.00;100679.31;5083213;27;59413;-72
2022/12/22 07:01:00;;;;;;;;;0.00;0.00;;;;;13.45;100.00;100689.91;5084730;27;52304;-73
2022/12/22 07:03:25;;;;;;;;;2.67;0.00;;;;;13.49;100.00;100694.34;5084267;27;45611;-72
2022/12/22 07:05:50;;;;;;;;;2.00;0.00;;;;;13.49;100.00;100697.00;5079985;27;59041;-73
2022/12/22 07:08:15;;;;;;;;;1.67;0.00;;;;;13.49;100.00;100702.28;5078500;27;60451;-73
2022/12/22 07:10:59;;;;;;;;;1.67;0.00;;;;;13.50;100.00;100704.06;5088381;27;56154;-72
2022/12/22 07:13:30;;;;;;;;;3.00;0.00;;;;;13.44;100.00;100688.16;5098525;27;45463;-73
2022/12/22 07:15:56;;;;;;;;;2.33;0.00;;;;;13.46;100.00;100703.16;5086356;27;45708;-73
2022/12/22 07:18:22;;;;;;;;;3.67;0.00;;;;;13.45;100.00;100703.19;5098666;27;45490;-73
2022/12/22 07:20:47;;;;;;;;;6.33;1.00;;;;;13.45;100.00;100712.03;5095370;27;45374;-72
2022/12/22 07:23:12;;;;;;;;;1.00;0.00;;;;;13.45;100.00;100711.16;5096414;27;54154;-73
2022/12/22 07:25:38;;;;;;;;;1.00;1.00;;;;;13.41;100.00;100707.59;5096785;27;47517;-72
2022/12/22 07:28:05;;;;;;;;;2.33;1.33;;;;;13.46;100.00;100720.84;5097214;27;62272;-73
2022/12/22 07:30:30;;;;;;;;;4.67;1.00;;;;;13.42;100.00;100722.63;5097834;27;45457;-71
2022/12/22 07:32:56;;;;;;;;;2.00;0.00;;;;;13.44;100.00;100718.22;5111661;27;45392;-72
2022/12/22 07:35:21;;;;;;;;;2.33;1.00;;;;;13.49;100.00;100723.50;5097470;27;58516;-72
2022/12/22 07:37:47;;;;;;;;;3.67;1.00;;;;;13.51;100.00;100727.91;5095885;27;58050;-72
2022/12/22 07:40:13;;;;;;;;;4.33;1.67;;;;;13.54;100.00;100729.69;5096673;27;45780;-72
2022/12/22 07:42:44;;;;;;;;;2.67;1.00;;;;;13.49;100.00;100719.09;5098780;27;45591;-72
2022/12/22 07:45:11;;;;;;;;;5.67;1.00;;;;;13.55;100.00;100720.84;5097617;27;46688;-72
2022/12/22 07:47:37;;;;;;;;;4.00;2.67;;;;;13.55;100.00;100729.69;5097679;27;45287;-72
2022/12/22 07:52:47;;;;;;;;;6.33;2.67;;;;;13.57;100.00;100725.25;5095601;27;45464;-73
2022/12/22 07:55:13;;;;;;;;;7.00;3.00;;;;;13.58;100.00;100727.03;5093353;27;46368;-72
2022/12/22 07:57:38;;;;;;;;;5.00;4.00;;;;;13.58;100.00;100724.38;5095532;27;45472;-73
2022/12/22 08:00:04;;;;;;;;;13.00;2.67;;;;;13.60;100.00;100730.56;5094601;27;45480;-73
2022/12/22 08:02:29;;;;;;;;;4.67;2.00;;;;;13.58;100.00;100723.47;5094038;27;45329;-72
2022/12/22 08:04:55;;;;;;;;;10.00;3.00;;;;;13.63;100.00;100735.84;5091174;27;59544;-73
2022/12/22 08:07:20;;;;;;;;;12.00;3.00;;;;;13.57;100.00;100719.94;5092697;27;58870;-71
2022/12/22 08:09:47;;;;;;;;;11.67;3.00;;;;;13.66;100.00;100737.59;5094138;27;45509;-73
2022/12/22 08:12:12;;;;;;;;;3.33;3.00;;;;;13.60;100.00;100735.84;5092325;27;45535;-72
2022/12/22 08:14:37;;;;;;;;;9.00;3.33;;;;;13.60;100.00;100740.28;5090369;27;62546;-72
2022/12/22 08:17:03;;;;;;;;;5.33;3.00;;;;;13.63;100.00;100750.88;5090984;27;45511;-72
2022/12/22 08:19:28;;;;;;;;;7.33;2.00;;;;;13.64;100.00;100750.00;5095267;27;45463;-72
2022/12/22 08:21:53;;;;;;;;;6.33;3.00;;;;;13.64;100.00;100757.97;5090695;27;46314;-71
2022/12/22 08:24:19;;;;;;;;;11.33;4.00;;;;;13.66;100.00;100758.84;5092133;27;60966;-72
2022/12/22 08:26:47;;;;;;;;;7.00;4.00;;;;;13.67;100.00;100757.94;5094214;27;45571;-73
2022/12/22 08:29:23;;;;;;;;;8.33;2.00;;;;;13.70;100.00;100759.72;5089149;27;46584;-72
2022/12/22 08:31:48;;;;;;;;;10.67;4.00;;;;;13.70;100.00;100763.25;5090536;27;45534;-73
2022/12/22 08:34:15;;;;;;;;;3.33;1.67;;;;;13.68;100.00;100764.13;5093337;27;64185;-72
2022/12/22 08:36:45;;;;;;;;;13.67;5.00;;;;;13.71;100.00;100772.09;5089838;27;45551;-72
2022/12/22 08:39:11;;;;;;;;;19.67;5.67;;;;;13.72;100.00;100761.47;5090112;27;45576;-73
2022/12/22 08:41:49;;;;;;;;;4.00;4.00;;;;;13.76;100.00;100767.66;5092436;27;56999;-72
2022/12/22 08:44:16;;;;;;;;;7.33;2.67;;;;;13.80;100.00;100758.81;5086178;27;46589;-71
2022/12/22 08:46:41;;;;;;;;;14.33;4.67;;;;;13.84;100.00;100748.16;5082168;27;45507;-71
2022/12/22 08:49:06;;;;;;;;;9.00;2.67;;;;;13.83;100.00;100749.03;5083400;27;53739;-71
2022/12/22 08:51:32;;;;;;;;;11.00;4.00;;;;;13.85;100.00;100749.06;5091302;27;51687;-72
2022/12/22 08:53:58;;;;;;;;;6.33;4.00;;;;;13.85;100.00;100749.94;5089596;27;47542;-72
2022/12/22 08:56:23;;;;;;;;;5.00;4.67;;;;;13.88;100.00;100743.72;5090272;27;55849;-72
2022/12/22 08:58:48;;;;;;;;;2.67;2.67;;;;;13.89;100.00;100753.44;5090771;27;53677;-73
2022/12/22 09:01:19;;;;;;;;;15.33;6.00;;;;;13.86;100.00;100745.50;5091993;27;53864;-73
2022/12/22 09:03:49;;;;;;;;;9.00;5.00;;;;;13.86;100.00;100750.81;5091857;27;46610;-73
2022/12/22 09:06:16;;;;;;;;;7.33;3.67;;;;;13.81;100.00;100739.34;5085257;27;45546;-71
2022/12/22 09:08:41;;;;;;;;;10.67;5.67;;;;;13.79;100.00;100739.31;5087509;27;45332;-72
2022/12/22 09:11:07;;;;;;;;;7.67;5.67;;;;;13.77;100.00;100740.22;5072713;27;45595;-70
2022/12/22 09:13:32;;;;;;;;;6.33;3.33;;;;;13.75;100.00;100747.31;5091329;27;49264;-71
2022/12/22 09:15:57;;;;;;;;;11.33;4.67;;;;;13.69;100.00;100740.25;5095295;27;61994;-72
2022/12/22 09:18:23;;;;;;;;;13.67;5.00;;;;;13.68;100.00;100735.81;5085594;27;55464;-69
2022/12/22 09:20:54;;;;;;;;;13.33;3.00;;;;;13.71;100.00;100748.22;5092178;27;45263;-71
2022/12/22 09:23:19;;;;;;;;;6.00;4.67;;;;;13.68;100.00;100741.13;5091411;27;46458;-71
2022/12/22 09:25:44;;;;;;;;;5.00;3.33;;;;;13.73;100.00;100760.56;5080398;27;58757;-71
2022/12/22 09:28:10;;;;;;;;;9.00;3.00;;;;;13.71;100.00;100746.44;5079559;27;54426;-72
2022/12/22 09:30:36;;;;;;;;;9.33;4.67;;;;;13.67;100.00;100736.72;5095162;27;45433;-72
2022/12/22 09:33:01;;;;;;;;;10.67;3.00;;;;;13.73;100.00;100762.34;5093091;27;46862;-72
2022/12/22 09:35:27;;;;;;;;;7.67;4.00;;;;;13.74;100.00;100740.22;5078057;27;62707;-72
2022/12/22 09:37:52;;;;;;;;;14.00;6.00;;;;;13.82;100.00;100746.41;5078352;27;54615;-70
2022/12/22 09:40:20;;;;;;;;;9.00;5.00;;;;;13.82;100.00;100741.09;5087769;27;45142;-72
2022/12/22 09:42:45;;;;;;;;;6.33;4.33;;;;;13.92;100.00;100755.22;5091540;27;46375;-72
2022/12/22 09:45:19;;;;;;;;;9.67;6.00;;;;;13.97;100.00;100772.00;5079019;27;51897;-71
2022/12/22 09:47:52;;;;;;;;;10.33;3.33;;;;;13.99;100.00;100768.44;5078128;27;45495;-73
2022/12/22 09:50:20;;;;;;;;;12.00;5.00;;;;;13.99;100.00;100764.91;5078741;27;45619;-72
2022/12/22 09:52:48;;;;;;;;;8.33;3.00;;;;;14.07;100.00;100769.31;5079164;27;46373;-71
2022/12/22 09:55:25;;;;;;;;;17.67;6.00;;;;;14.15;100.00;100780.75;5081163;27;45480;-72
2022/12/22 09:57:54;;;;;;;;;17.00;8.00;;;;;14.20;100.00;100793.16;5090093;27;45263;-72
2022/12/22 10:00:23;;;;;;;;;8.00;4.67;;;;;14.25;100.00;100791.34;5077614;27;53937;-71
2022/12/22 10:02:56;;;;;;;;;12.00;4.67;;;;;14.29;100.00;100787.78;5079009;27;45743;-72
2022/12/22 10:05:38;;;;;;;;;2.33;1.00;;;;;14.33;100.00;100784.25;5075728;27;45508;-71
2022/12/22 10:08:12;;;;;;;;;8.33;4.33;;;;;14.34;100.00;100775.38;5079479;27;45287;-72
2022/12/22 10:10:39;;;;;;;;;12.33;4.33;;;;;14.44;100.00;100779.75;5085428;27;45267;-73
2022/12/22 10:13:06;;;;;;;;;10.67;4.00;;;;;14.44;100.00;100760.28;5085141;27;46518;-71
2022/12/22 10:15:39;;;;;;;;;5.00;3.33;;;;;14.48;100.00;100773.53;5082907;27;45485;-71
2022/12/22 10:18:11;;;;;;;;;4.67;3.33;;;;;14.53;100.00;100771.75;5084352;27;45693;-72
2022/12/22 10:20:38;;;;;;;;;17.00;6.00;;;;;14.56;100.00;100766.41;5083727;27;45538;-72
2022/12/22 10:23:19;;;;;;;;;13.00;5.00;;;;;14.59;100.00;100774.34;5082011;27;47665;-72
2022/12/22 10:25:57;;;;;;;;;14.33;4.00;;;;;14.62;100.00;100774.34;5089698;27;45393;-71
2022/12/22 10:28:26;;;;;;;;;16.00;4.00;;;;;14.66;100.00;100780.53;5086496;27;45500;-71
2022/12/22 10:31:30;;;;;;;;;8.67;4.00;;;;;14.70;100.00;100776.06;5081645;27;45581;-71
2022/12/22 10:34:12;;;;;;;;;14.33;6.00;;;;;14.72;100.00;100768.97;5016659;28;47250;-71
2022/12/22 10:36:38;;;;;;;;;8.00;4.00;;;;;14.71;100.00;100759.25;5076200;27;45510;-71
2022/12/22 10:39:09;;;;;;;;;10.33;5.00;;;;;14.74;100.00;100770.72;5081264;27;45480;-71
2022/12/22 10:41:43;;;;;;;;;7.67;4.00;;;;;14.73;100.00;100765.41;5094477;27;45328;-71
2022/12/22 10:44:20;;;;;;;;;9.00;4.00;;;;;14.76;100.00;100768.94;5095929;27;45945;-72
2022/12/22 10:46:54;;;;;;;;;5.33;4.00;;;;;14.77;100.00;100765.38;5086238;27;45399;-72
2022/12/22 10:49:39;;;;;;;;;8.33;4.00;;;;;14.76;100.00;100757.44;5083630;27;45477;-71
2022/12/22 10:52:07;;;;;;;;;8.33;4.67;;;;;14.82;100.00;100760.03;5082158;27;45472;-72
2022/12/22 10:54:37;;;;;;;;;11.33;3.33;;;;;14.79;100.00;100766.25;5079687;27;45393;-71
2022/12/22 10:57:21;;;;;;;;;14.00;2.33;;;;;14.82;100.00;100762.69;5088080;27;45438;-73
2022/12/22 10:59:49;;;;;;;;;9.00;3.00;;;;;14.85;100.00;100773.28;5097908;27;45602;-73
2022/12/22 11:02:27;;;;;;;;;13.67;6.67;;;;;14.87;100.00;100766.22;5081216;27;45509;-71
2022/12/22 11:04:53;;;;;;;;;13.00;5.00;;;;;14.87;100.00;100766.22;5083778;27;46485;-71
2022/12/22 11:07:19;;;;;;;;;13.00;3.33;;;;;14.89;100.00;100770.59;5084050;27;45422;-75
2022/12/22 11:09:44;;;;;;;;;9.33;4.00;;;;;14.88;100.00;100752.03;5085317;27;45474;-73
2022/12/22 11:12:34;;;;;;;;;7.67;5.33;;;;;14.93;100.00;100761.72;5080557;27;50136;-72
2022/12/22 11:15:31;;;;;;;;;12.67;5.00;;;;;14.96;100.00;100766.13;5086692;27;45735;-73
2022/12/22 11:18:05;;;;;;;;;9.00;5.00;;;;;14.99;100.00;100765.22;5072253;27;45515;-75
2022/12/22 11:20:41;;;;;;;;;14.33;5.00;;;;;14.97;100.00;100765.25;5095518;27;45515;-73
2022/12/22 11:23:13;;;;;;;;;17.00;3.67;;;;;14.94;100.00;100759.94;5093406;27;45491;-73
2022/12/22 11:25:44;;;;;;;;;6.67;4.00;;;;;14.95;100.00;100756.38;5083807;27;46520;-72
2022/12/22 11:28:28;;;;;;;;;6.67;4.67;;;;;14.96;100.00;100747.50;5084346;27;45361;-73
2022/12/22 11:30:58;;;;;;;;;13.33;4.00;;;;;14.97;100.00;100751.03;5098399;27;45717;-74
2022/12/22 11:33:23;;;;;;;;;7.33;5.00;;;;;14.97;100.00;100740.41;5093597;27;45393;-73
2022/12/22 11:35:52;;;;;;;;;20.33;7.00;;;;;14.98;100.00;100748.41;5090453;27;46711;-73
2022/12/22 11:38:35;;;;;;;;;6.00;4.67;;;;;14.97;100.00;100743.06;5088336;27;45539;-73
2022/12/22 11:41:03;;;;;;;;;9.67;5.67;;;;;14.99;100.00;100743.97;5081709;27;45330;-73
2022/12/22 11:43:32;;;;;;;;;5.33;4.00;;;;;15.02;100.00;100746.56;5085745;27;46639;-72
2022/12/22 11:46:19;;;;;;;;;10.33;4.00;;;;;15.03;100.00;100746.59;5083779;27;46097;-73
2022/12/22 11:49:19;;;;;;;;;8.33;4.33;;;;;15.04;100.00;100740.34;5095295;27;45543;-73
2022/12/22 11:52:03;;;;;;;;;9.00;4.67;;;;;15.07;100.00;100736.78;5099456;27;45591;-74
2022/12/22 11:54:43;;;;;;;;;9.33;4.67;;;;;15.08;100.00;100722.59;5098668;27;45801;-76
2022/12/22 11:57:33;;;;;;;;;11.33;4.67;;;;;15.10;100.00;100718.16;5094934;27;46414;-73
2022/12/22 12:00:13;;;;;;;;;12.00;5.67;;;;;15.10;100.00;100705.72;5098328;27;45300;-73
2022/12/22 12:02:57;;;;;;;;;10.67;6.00;;;;;15.20;100.00;100711.84;5090752;27;45354;-73
2022/12/22 12:06:01;;;;;;;;;13.33;3.67;;;;;15.27;100.00;100712.66;5084888;27;45364;-73
2022/12/22 12:08:39;;;;;;;;;11.00;3.00;;;;;15.30;100.00;100713.53;5072452;27;46513;-74
2022/12/22 12:11:26;;;;;;;;;12.67;5.00;;;;;15.32;100.00;100705.50;5083034;27;45230;-73
2022/12/22 12:13:57;;;;;;;;;7.67;1.33;;;;;15.30;100.00;100699.34;5081372;27;45496;-74
2022/12/22 12:16:32;;;;;;;;;10.00;6.00;;;;;15.30;100.00;100697.56;5084085;27;45323;-74
2022/12/22 12:19:09;;;;;;;;;9.33;4.00;;;;;15.28;100.00;100686.03;5080002;27;45870;-75
2022/12/22 12:21:51;;;;;;;;;11.33;5.00;;;;;15.30;100.00;100694.91;5082310;27;45427;-71
2022/12/22 12:24:22;;;;;;;;;7.33;3.00;;;;;15.31;100.00;100701.09;5095552;27;45596;-73
2022/12/22 12:26:47;;;;;;;;;10.33;4.00;;;;;15.28;100.00;100698.44;5089054;27;45300;-77
2022/12/22 12:29:13;;;;;;;;;12.33;6.00;;;;;15.25;100.00;100679.88;5095952;27;46400;-73
2022/12/22 12:31:42;;;;;;;;;8.33;3.67;;;;;15.22;100.00;100679.91;5094448;27;45570;-75
2022/12/22 12:34:13;;;;;;;;;12.00;5.00;;;;;15.14;100.00;100648.09;5097117;27;45692;-73
2022/12/22 12:37:10;;;;;;;;;6.67;3.33;;;;;15.15;100.00;100669.34;5095740;27;45428;-73
2022/12/22 12:39:57;;;;;;;;;10.67;5.33;;;;;15.15;100.00;100666.66;5075258;27;46301;-75
2022/12/22 12:42:32;;;;;;;;;11.00;6.00;;;;;15.15;100.00;100661.34;5095908;27;45385;-72
2022/12/22 12:45:01;;;;;;;;;9.00;5.00;;;;;15.10;100.00;100656.97;5095356;27;45460;-72
2022/12/22 12:47:34;;;;;;;;;8.67;5.00;;;;;15.12;100.00;100653.38;5096553;27;45390;-74
2022/12/22 12:50:12;;;;;;;;;10.00;4.33;;;;;15.08;100.00;100651.69;5091856;27;47406;-74
2022/12/22 12:52:37;;;;;;;;;13.67;5.00;;;;;15.09;100.00;100642.81;5096196;27;45484;-77
2022/12/22 12:55:31;;;;;;;;;10.00;5.00;;;;;15.08;100.00;100642.84;5096081;27;45541;-75
2022/12/22 12:57:58;;;;;;;;;6.67;3.33;;;;;15.08;100.00;100638.38;5096343;27;45437;-75
2022/12/22 13:00:32;;;;;;;;;5.00;3.33;;;;;15.09;100.00;100639.28;5093768;27;46651;-73
2022/12/22 13:03:04;;;;;;;;;8.67;5.00;;;;;15.08;100.00;100637.50;5096313;27;45355;-74
2022/12/22 13:05:52;;;;;;;;;7.00;5.00;;;;;15.05;100.00;100646.38;5096034;27;45541;-73
2022/12/22 13:08:28;;;;;;;;;6.33;3.00;;;;;15.03;100.00;100626.03;5095131;27;45454;-74
2022/12/22 13:10:53;;;;;;;;;9.67;3.33;;;;;15.01;100.00;100620.72;5092749;27;45627;-73
2022/12/22 13:13:21;;;;;;;;;7.00;4.00;;;;;14.99;100.00;100626.97;5093265;27;45358;-74
2022/12/22 13:15:48;;;;;;;;;8.00;5.00;;;;;14.94;100.00;100621.69;5095573;27;45533;-74
2022/12/22 13:18:22;;;;;;;;;9.00;4.00;;;;;14.91;100.00;100619.97;5092243;27;45510;-73
2022/12/22 13:20:54;;;;;;;;;5.67;3.67;;;;;14.90;100.00;100614.63;5092308;27;47503;-77
2022/12/22 13:23:20;;;;;;;;;10.00;4.00;;;;;14.88;100.00;100619.09;5088639;27;45541;-73
2022/12/22 13:25:52;;;;;;;;;7.00;5.00;;;;;14.86;100.00;100613.81;5093183;27;50217;-74
2022/12/22 13:28:19;;;;;;;;;8.33;6.00;;;;;14.84;100.00;100612.03;5089461;27;45560;-77
2022/12/22 13:30:51;;;;;;;;;11.67;5.33;;;;;14.81;100.00;100612.09;5087239;27;46438;-74
2022/12/22 13:33:20;;;;;;;;;10.67;6.33;;;;;14.75;100.00;100601.50;5094441;27;45411;-74
2022/12/22 13:35:46;;;;;;;;;11.00;4.00;;;;;14.73;100.00;100609.50;5088245;27;45672;-76
2022/12/22 13:38:35;;;;;;;;;7.67;5.00;;;;;14.70;100.00;100598.91;5091555;27;45589;-74
2022/12/22 13:41:17;;;;;;;;;15.67;5.67;;;;;14.65;100.00;100595.41;5095735;27;47507;-73
2022/12/22 13:43:53;;;;;;;;;7.00;4.00;;;;;14.62;100.00;100577.69;5090508;27;45269;-73
2022/12/22 13:46:19;;;;;;;;;11.00;4.00;;;;;14.64;100.00;100586.53;5085020;27;45835;-75
2022/12/22 13:48:49;;;;;;;;;6.00;3.00;;;;;14.60;100.00;100573.31;5085885;27;48042;-74
2022/12/22 13:51:27;;;;;;;;;14.00;4.67;;;;;14.60;100.00;100583.94;5094302;27;46677;-73
2022/12/22 13:53:59;;;;;;;;;8.00;4.00;;;;;14.54;100.00;100576.91;5083346;27;45555;-73
2022/12/22 13:56:34;;;;;;;;;6.00;4.00;;;;;14.49;100.00;100560.13;5087682;27;46415;-74
2022/12/22 13:59:01;;;;;;;;;10.00;4.00;;;;;14.51;100.00;100578.72;5089707;27;45429;-74
2022/12/22 14:01:27;;;;;;;;;9.33;6.67;;;;;14.47;100.00;100563.66;5087399;27;46189;-74
2022/12/22 14:03:56;;;;;;;;;7.33;3.00;;;;;14.46;100.00;100562.78;5088878;27;45346;-74
2022/12/22 14:06:35;;;;;;;;;10.67;4.00;;;;;14.44;100.00;100545.97;5095781;27;45400;-74
2022/12/22 14:09:19;;;;;;;;;11.67;4.00;;;;;14.38;100.00;100544.25;5093049;27;45404;-73
2022/12/22 14:12:07;;;;;;;;;7.00;3.33;;;;;14.35;100.00;100549.59;5086642;27;46511;-74
2022/12/22 14:14:37;;;;;;;;;8.33;3.33;;;;;14.35;100.00;100533.66;5094813;27;45285;-74
2022/12/22 14:17:03;;;;;;;;;3.67;2.00;;;;;14.30;100.00;100516.88;5095705;27;45346;-74
2022/12/22 14:19:35;;;;;;;;;7.00;3.00;;;;;14.25;100.00;100524.00;5095299;27;45292;-74
2022/12/22 14:22:10;;;;;;;;;6.00;4.67;;;;;14.28;100.00;100528.41;5095555;27;46079;-73
2022/12/22 14:24:47;;;;;;;;;9.00;3.00;;;;;14.26;100.00;100533.72;5094509;27;45568;-76
2022/12/22 14:27:30;;;;;;;;;6.67;4.00;;;;;14.25;100.00;100531.97;5091757;27;45483;-73
2022/12/22 14:29:58;;;;;;;;;3.00;3.00;;;;;14.26;100.00;100519.56;5093089;27;45457;-74
2022/12/22 14:32:42;;;;;;;;;8.00;2.33;;;;;14.21;100.00;100518.72;5094610;27;46335;-72
2022/12/22 14:35:16;;;;;;;;;5.33;2.00;;;;;14.24;100.00;100518.72;5095825;27;45367;-72
2022/12/22 14:37:41;;;;;;;;;6.33;2.33;;;;;14.25;100.00;100539.94;5090422;27;45421;-72
2022/12/22 14:40:32;;;;;;;;;4.33;3.67;;;;;14.25;100.00;100531.09;5095653;27;45579;-71
2022/12/22 14:43:00;;;;;;;;;6.00;3.00;;;;;14.26;100.00;100495.66;5090194;27;45731;-72
2022/12/22 14:45:25;;;;;;;;;5.00;4.00;;;;;14.23;100.00;100483.31;5088646;27;45436;-72
2022/12/22 14:47:52;;;;;;;;;5.33;2.00;;;;;14.23;100.00;100480.66;5091300;27;45283;-72
2022/12/22 14:50:28;;;;;;;;;5.00;2.00;;;;;14.25;100.00;100473.53;5092700;27;45525;-73
2022/12/22 14:52:57;;;;;;;;;7.67;2.67;;;;;14.27;100.00;100473.53;5091280;27;47141;-74
2022/12/22 14:55:28;;;;;;;;;7.67;3.00;;;;;14.26;100.00;100467.34;5096915;27;45515;-74
2022/12/22 14:58:10;;;;;;;;;4.00;3.00;;;;;14.24;100.00;100453.19;5100277;27;45351;-74
2022/12/22 15:00:38;;;;;;;;;3.00;2.00;;;;;14.28;100.00;100449.63;5097490;27;45599;-74
2022/12/22 15:03:32;;;;;;;;;3.67;3.00;;;;;14.30;100.00;100460.22;5098896;27;46700;-74